sensor_id;sensor_type;location;lat;lon;timestamp;pressure;altitude;pressure_sealevel;temperature;humidity
74716;BME280;63234;37.558;127.058;2023-08-20T00:01:06;100373.78;;;24.13;71.07
74716;BME280;63234;37.558;127.058;2023-08-20T00:03:35;100369.78;;;24.11;71.16
74716;BME280;63234;37.558;127.058;2023-08-20T00:06:01;100358.72;;;24.07;71.29
74716;BME280;63234;37.558;127.058;2023-08-20T00:08:29;100354.91;;;24.08;71.59
74716;BME280;63234;37.558;127.058;2023-08-20T00:10:55;100363.75;;;24.14;71.25
74716;BME280;63234;37.558;127.058;2023-08-20T00:13:21;100351.69;;;24.06;71.37
74716;BME280;63234;37.558;127.058;2023-08-20T00:15:47;100352.28;;;24.17;71.33
74716;BME280;63234;37.558;127.058;2023-08-20T00:18:14;100348.66;;;24.08;71.54
74716;BME280;63234;37.558;127.058;2023-08-20T00:20:40;100353.69;;;24.14;71.31
74716;BME280;63234;37.558;127.058;2023-08-20T00:23:06;100363.13;;;24.17;71.52
74716;BME280;63234;37.558;127.058;2023-08-20T00:25:32;100349.16;;;24.10;71.57
74716;BME280;63234;37.558;127.058;2023-08-20T00:27:58;100362.13;;;24.13;71.61
74716;BME280;63234;37.558;127.058;2023-08-20T00:30:24;100357.63;;;24.08;71.79
74716;BME280;63234;37.558;127.058;2023-08-20T00:32:50;100357.47;;;24.13;71.48
74716;BME280;63234;37.558;127.058;2023-08-20T00:35:15;100362.72;;;24.10;71.56
74716;BME280;63234;37.558;127.058;2023-08-20T00:37:41;100357.47;;;24.13;71.45
74716;BME280;63234;37.558;127.058;2023-08-20T00:40:07;100365.84;;;24.17;71.68
74716;BME280;63234;37.558;127.058;2023-08-20T00:42:35;100368.34;;;24.13;71.65
74716;BME280;63234;37.558;127.058;2023-08-20T00:45:01;100368.16;;;24.10;71.96
74716;BME280;63234;37.558;127.058;2023-08-20T00:47:27;100361.13;;;24.09;71.94
74716;BME280;63234;37.558;127.058;2023-08-20T00:49:54;100355.81;;;24.03;72.01
74716;BME280;63234;37.558;127.058;2023-08-20T00:52:20;100356.94;;;24.02;72.11
74716;BME280;63234;37.558;127.058;2023-08-20T00:54:47;100357.88;;;24.20;72.16
74716;BME280;63234;37.558;127.058;2023-08-20T00:57:19;100356.84;;;24.30;71.34
74716;BME280;63234;37.558;127.058;2023-08-20T00:59:47;100366.13;;;24.29;71.56
74716;BME280;63234;37.558;127.058;2023-08-20T01:02:17;100358.44;;;24.31;71.82
74716;BME280;63234;37.558;127.058;2023-08-20T01:04:44;100370.72;;;24.42;71.07
74716;BME280;63234;37.558;127.058;2023-08-20T01:07:29;100369.53;;;24.35;71.59
74716;BME280;63234;37.558;127.058;2023-08-20T01:10:19;100377.28;;;24.27;71.37
74716;BME280;63234;37.558;127.058;2023-08-20T01:12:48;100380.88;;;24.00;72.15
74716;BME280;63234;37.558;127.058;2023-08-20T01:15:15;100387.31;;;24.04;72.62
74716;BME280;63234;37.558;127.058;2023-08-20T01:17:42;100384.50;;;23.96;72.96
74716;BME280;63234;37.558;127.058;2023-08-20T01:20:09;100389.13;;;23.95;72.58
74716;BME280;63234;37.558;127.058;2023-08-20T01:23:15;100382.16;;;24.03;72.75
74716;BME280;63234;37.558;127.058;2023-08-20T01:26:20;100386.91;;;23.97;73.04
74716;BME280;63234;37.558;127.058;2023-08-20T01:28:48;100391.63;;;23.92;73.07
74716;BME280;63234;37.558;127.058;2023-08-20T01:31:15;100384.91;;;23.89;73.38
74716;BME280;63234;37.558;127.058;2023-08-20T01:33:41;100390.97;;;23.86;73.33
74716;BME280;63234;37.558;127.058;2023-08-20T01:36:08;100391.75;;;23.87;73.26
74716;BME280;63234;37.558;127.058;2023-08-20T01:38:37;100392.75;;;23.91;73.25
74716;BME280;63234;37.558;127.058;2023-08-20T01:41:04;100390.22;;;23.94;73.49
74716;BME280;63234;37.558;127.058;2023-08-20T01:43:30;100392.75;;;23.91;73.38
74716;BME280;63234;37.558;127.058;2023-08-20T01:45:56;100397.47;;;23.85;73.67
74716;BME280;63234;37.558;127.058;2023-08-20T01:48:21;100399.59;;;23.88;73.31
74716;BME280;63234;37.558;127.058;2023-08-20T01:50:47;100406.22;;;23.96;73.05
74716;BME280;63234;37.558;127.058;2023-08-20T01:53:13;100398.28;;;23.99;73.12
74716;BME280;63234;37.558;127.058;2023-08-20T01:55:40;100397.28;;;23.95;73.23
74716;BME280;63234;37.558;127.058;2023-08-20T01:58:05;100397.66;;;24.02;73.31
74716;BME280;63234;37.558;127.058;2023-08-20T02:00:31;100390.97;;;23.86;73.79
74716;BME280;63234;37.558;127.058;2023-08-20T02:02:59;100389.75;;;23.92;73.55
74716;BME280;63234;37.558;127.058;2023-08-20T02:05:25;100385.31;;;23.96;73.60
74716;BME280;63234;37.558;127.058;2023-08-20T02:07:51;100386.00;;;24.02;73.16
74716;BME280;63234;37.558;127.058;2023-08-20T02:10:17;100384.69;;;23.99;73.37
74716;BME280;63234;37.558;127.058;2023-08-20T02:12:43;100386.69;;;24.08;73.14
74716;BME280;63234;37.558;127.058;2023-08-20T02:15:09;100381.97;;;23.99;73.32
74716;BME280;63234;37.558;127.058;2023-08-20T02:17:36;100382.59;;;23.96;73.43
74716;BME280;63234;37.558;127.058;2023-08-20T02:20:03;100377.84;;;24.02;73.52
74716;BME280;63234;37.558;127.058;2023-08-20T02:22:30;100363.97;;;24.03;72.66
74716;BME280;63234;37.558;127.058;2023-08-20T02:24:55;100353.69;;;24.00;73.32
74716;BME280;63234;37.558;127.058;2023-08-20T02:27:21;100358.53;;;24.03;73.08
74716;BME280;63234;37.558;127.058;2023-08-20T02:29:48;100353.50;;;24.11;73.03
74716;BME280;63234;37.558;127.058;2023-08-20T02:32:14;100358.53;;;24.03;73.24
74716;BME280;63234;37.558;127.058;2023-08-20T02:34:40;100364.97;;;24.08;73.40
74716;BME280;63234;37.558;127.058;2023-08-20T02:37:06;100360.34;;;24.08;73.16
74716;BME280;63234;37.558;127.058;2023-08-20T02:39:32;100364.00;;;23.90;73.57
74716;BME280;63234;37.558;127.058;2023-08-20T02:41:58;100369.75;;;23.74;74.44
74716;BME280;63234;37.558;127.058;2023-08-20T02:44:23;100359.78;;;23.84;74.45
74716;BME280;63234;37.558;127.058;2023-08-20T02:46:49;100363.00;;;23.72;74.52
74716;BME280;63234;37.558;127.058;2023-08-20T02:49:15;100367.91;;;23.56;75.33
74716;BME280;63234;37.558;127.058;2023-08-20T02:51:43;100379.25;;;23.58;75.38
74716;BME280;63234;37.558;127.058;2023-08-20T02:54:09;100378.06;;;23.50;75.45
74716;BME280;63234;37.558;127.058;2023-08-20T02:56:34;100376.44;;;23.49;75.30
74716;BME280;63234;37.558;127.058;2023-08-20T02:59:00;100371.44;;;23.56;75.21
74716;BME280;63234;37.558;127.058;2023-08-20T03:01:26;100367.31;;;23.73;74.58
74716;BME280;63234;37.558;127.058;2023-08-20T03:03:52;100368.22;;;23.54;75.04
74716;BME280;63234;37.558;127.058;2023-08-20T03:06:18;100356.03;;;23.52;75.34
74716;BME280;63234;37.558;127.058;2023-08-20T03:08:44;100364.88;;;23.57;75.09
74716;BME280;63234;37.558;127.058;2023-08-20T03:11:11;100353.03;;;23.67;75.01
74716;BME280;63234;37.558;127.058;2023-08-20T03:13:36;100352.94;;;23.72;74.94
74716;BME280;63234;37.558;127.058;2023-08-20T03:16:02;100355.44;;;23.69;74.76
74716;BME280;63234;37.558;127.058;2023-08-20T03:18:28;100362.41;;;23.75;74.52
74716;BME280;63234;37.558;127.058;2023-08-20T03:20:55;100367.31;;;23.59;74.57
74716;BME280;63234;37.558;127.058;2023-08-20T03:23:22;100373.34;;;23.56;75.16
74716;BME280;63234;37.558;127.058;2023-08-20T03:25:48;100378.16;;;23.45;75.68
74716;BME280;63234;37.558;127.058;2023-08-20T03:28:13;100371.91;;;23.31;76.09
74716;BME280;63234;37.558;127.058;2023-08-20T03:30:39;100379.75;;;23.32;76.27
74716;BME280;63234;37.558;127.058;2023-08-20T03:33:05;100376.84;;;23.43;75.29
74716;BME280;63234;37.558;127.058;2023-08-20T03:35:31;100370.22;;;23.35;75.73
74716;BME280;63234;37.558;127.058;2023-08-20T03:37:56;100364.69;;;23.26;75.80
74716;BME280;63234;37.558;127.058;2023-08-20T03:40:22;100364.09;;;23.29;75.54
74716;BME280;63234;37.558;127.058;2023-08-20T03:42:48;100358.56;;;23.21;75.86
74716;BME280;63234;37.558;127.058;2023-08-20T03:45:14;100366.16;;;23.19;76.21
74716;BME280;63234;37.558;127.058;2023-08-20T03:47:39;100369.28;;;23.12;76.59
74716;BME280;63234;37.558;127.058;2023-08-20T03:50:08;100365.16;;;23.15;76.45
74716;BME280;63234;37.558;127.058;2023-08-20T03:52:34;100363.84;;;23.12;76.93
74716;BME280;63234;37.558;127.058;2023-08-20T03:54:59;100366.09;;;23.24;76.18
74716;BME280;63234;37.558;127.058;2023-08-20T03:57:25;100367.59;;;23.30;76.45
74716;BME280;63234;37.558;127.058;2023-08-20T03:59:51;100375.84;;;23.39;76.27
74716;BME280;63234;37.558;127.058;2023-08-20T04:02:16;100364.88;;;23.30;76.16
74716;BME280;63234;37.558;127.058;2023-08-20T04:04:42;100374.03;;;23.48;75.78
74716;BME280;63234;37.558;127.058;2023-08-20T04:07:08;100372.81;;;23.40;76.00
74716;BME280;63234;37.558;127.058;2023-08-20T04:09:34;100372.72;;;23.45;75.60
74716;BME280;63234;37.558;127.058;2023-08-20T04:12:03;100382.91;;;23.53;75.34
74716;BME280;63234;37.558;127.058;2023-08-20T04:14:29;100381.09;;;23.35;75.78
74716;BME280;63234;37.558;127.058;2023-08-20T04:16:54;100382.59;;;23.41;75.77
74716;BME280;63234;37.558;127.058;2023-08-20T04:19:20;100372.03;;;23.40;76.17
74716;BME280;63234;37.558;127.058;2023-08-20T04:21:46;100377.66;;;23.43;75.91
74716;BME280;63234;37.558;127.058;2023-08-20T04:24:12;100379.06;;;23.54;75.79
74716;BME280;63234;37.558;127.058;2023-08-20T04:26:37;100377.97;;;23.55;75.44
74716;BME280;63234;37.558;127.058;2023-08-20T04:29:03;100370.03;;;23.45;75.49
74716;BME280;63234;37.558;127.058;2023-08-20T04:31:29;100379.47;;;23.48;75.73
74716;BME280;63234;37.558;127.058;2023-08-20T04:33:55;100379.06;;;23.68;74.70
74716;BME280;63234;37.558;127.058;2023-08-20T04:36:20;100388.72;;;23.61;75.13
74716;BME280;63234;37.558;127.058;2023-08-20T04:38:46;100381.69;;;23.46;75.47
74716;BME280;63234;37.558;127.058;2023-08-20T04:41:12;100383.59;;;23.45;75.73
74716;BME280;63234;37.558;127.058;2023-08-20T04:43:38;100388.03;;;23.41;76.05
74716;BME280;63234;37.558;127.058;2023-08-20T04:46:04;100392.34;;;23.42;75.80
74716;BME280;63234;37.558;127.058;2023-08-20T04:48:29;100397.28;;;23.54;74.69
74716;BME280;63234;37.558;127.058;2023-08-20T04:50:55;100401.81;;;23.58;74.53
74716;BME280;63234;37.558;127.058;2023-08-20T04:53:21;100408.75;;;23.65;74.24
74716;BME280;63234;37.558;127.058;2023-08-20T04:55:47;100398.75;;;23.46;74.80
74716;BME280;63234;37.558;127.058;2023-08-20T04:58:13;100400.69;;;23.32;75.31
74716;BME280;63234;37.558;127.058;2023-08-20T05:00:38;100408.50;;;23.33;75.37
74716;BME280;63234;37.558;127.058;2023-08-20T05:03:04;100407.28;;;23.26;75.59
74716;BME280;63234;37.558;127.058;2023-08-20T05:05:30;100407.19;;;23.17;76.04
74716;BME280;63234;37.558;127.058;2023-08-20T05:07:56;100411.09;;;23.25;75.77
74716;BME280;63234;37.558;127.058;2023-08-20T05:10:22;100408.19;;;23.21;75.58
74716;BME280;63234;37.558;127.058;2023-08-20T05:12:47;100409.41;;;23.29;75.41
74716;BME280;63234;37.558;127.058;2023-08-20T05:15:13;100420.94;;;23.21;75.57
74716;BME280;63234;37.558;127.058;2023-08-20T05:17:40;100419.22;;;23.25;75.54
74716;BME280;63234;37.558;127.058;2023-08-20T05:20:06;100424.66;;;23.25;75.46
74716;BME280;63234;37.558;127.058;2023-08-20T05:22:32;100423.06;;;23.24;75.26
74716;BME280;63234;37.558;127.058;2023-08-20T05:24:57;100423.44;;;23.17;75.61
74716;BME280;63234;37.558;127.058;2023-08-20T05:27:23;100420.56;;;23.27;75.30
74716;BME280;63234;37.558;127.058;2023-08-20T05:29:49;100425.09;;;23.32;75.00
74716;BME280;63234;37.558;127.058;2023-08-20T05:32:15;100429.09;;;23.21;75.35
74716;BME280;63234;37.558;127.058;2023-08-20T05:34:41;100433.78;;;23.15;75.75
74716;BME280;63234;37.558;127.058;2023-08-20T05:37:07;100431.28;;;23.19;75.62
74716;BME280;63234;37.558;127.058;2023-08-20T05:39:41;100432.56;;;23.07;75.85
74716;BME280;63234;37.558;127.058;2023-08-20T05:42:07;100437.69;;;23.09;75.40
74716;BME280;63234;37.558;127.058;2023-08-20T05:44:32;100435.91;;;23.18;75.45
74716;BME280;63234;37.558;127.058;2023-08-20T05:46:58;100435.03;;;23.23;75.13
74716;BME280;63234;37.558;127.058;2023-08-20T05:49:24;100431.88;;;23.16;75.51
74716;BME280;63234;37.558;127.058;2023-08-20T05:51:50;100431.28;;;23.19;75.86
74716;BME280;63234;37.558;127.058;2023-08-20T05:54:16;100440.34;;;23.28;74.82
74716;BME280;63234;37.558;127.058;2023-08-20T05:56:42;100432.19;;;23.28;74.99
74716;BME280;63234;37.558;127.058;2023-08-20T05:59:07;100428.28;;;23.34;75.32
74716;BME280;63234;37.558;127.058;2023-08-20T06:01:33;100440.06;;;23.43;74.45
74716;BME280;63234;37.558;127.058;2023-08-20T06:03:59;100438.78;;;23.41;74.53
74716;BME280;63234;37.558;127.058;2023-08-20T06:06:26;100438.97;;;23.44;74.28
74716;BME280;63234;37.558;127.058;2023-08-20T06:08:52;100444.28;;;23.49;74.36
74716;BME280;63234;37.558;127.058;2023-08-20T06:11:19;100447.44;;;23.56;73.67
74716;BME280;63234;37.558;127.058;2023-08-20T06:13:45;100458.91;;;23.67;73.89
74716;BME280;63234;37.558;127.058;2023-08-20T06:16:10;100452.78;;;23.62;73.93
74716;BME280;63234;37.558;127.058;2023-08-20T06:18:36;100457.81;;;23.68;73.55
74716;BME280;63234;37.558;127.058;2023-08-20T06:21:03;100453.59;;;23.62;74.30
74716;BME280;63234;37.558;127.058;2023-08-20T06:23:50;100465.53;;;23.61;73.96
74716;BME280;63234;37.558;127.058;2023-08-20T06:26:23;100457.25;;;23.52;74.59
74716;BME280;63234;37.558;127.058;2023-08-20T06:28:49;100465.56;;;23.75;74.10
74716;BME280;63234;37.558;127.058;2023-08-20T06:31:14;100473.34;;;23.95;72.71
74716;BME280;63234;37.558;127.058;2023-08-20T06:33:40;100470.19;;;23.88;72.68
74716;BME280;63234;37.558;127.058;2023-08-20T06:36:06;100465.38;;;23.85;72.77
74716;BME280;63234;37.558;127.058;2023-08-20T06:38:32;100471.53;;;23.77;73.01
74716;BME280;63234;37.558;127.058;2023-08-20T06:40:58;100478.66;;;24.00;72.64
74716;BME280;63234;37.558;127.058;2023-08-20T06:43:23;100467.78;;;24.00;72.28
74716;BME280;63234;37.558;127.058;2023-08-20T06:45:49;100476.53;;;23.97;73.09
74716;BME280;63234;37.558;127.058;2023-08-20T06:48:15;100473.94;;;23.92;72.78
74716;BME280;63234;37.558;127.058;2023-08-20T06:50:44;100471.28;;;24.01;72.32
74716;BME280;63234;37.558;127.058;2023-08-20T06:53:12;100459.53;;;24.06;71.91
74716;BME280;63234;37.558;127.058;2023-08-20T06:55:37;100473.41;;;24.18;70.81
74716;BME280;63234;37.558;127.058;2023-08-20T06:58:08;100468.69;;;24.10;71.10
74716;BME280;63234;37.558;127.058;2023-08-20T07:00:34;100474.00;;;24.15;71.34
74716;BME280;63234;37.558;127.058;2023-08-20T07:03:00;100475.81;;;24.19;71.11
74716;BME280;63234;37.558;127.058;2023-08-20T07:05:26;100468.25;;;24.30;69.76
74716;BME280;63234;37.558;127.058;2023-08-20T07:07:52;100464.81;;;24.38;68.97
74716;BME280;63234;37.558;127.058;2023-08-20T07:10:17;100473.38;;;24.45;68.73
74716;BME280;63234;37.558;127.058;2023-08-20T07:12:43;100471.97;;;24.34;68.63
74716;BME280;63234;37.558;127.058;2023-08-20T07:15:23;100483.66;;;24.35;68.91
74716;BME280;63234;37.558;127.058;2023-08-20T07:17:57;100483.25;;;24.41;69.20
74716;BME280;63234;37.558;127.058;2023-08-20T07:20:25;100489.13;;;24.71;67.99
74716;BME280;63234;37.558;127.058;2023-08-20T07:22:51;100488.84;;;24.59;68.51
74716;BME280;63234;37.558;127.058;2023-08-20T07:25:17;100492.59;;;24.63;68.38
74716;BME280;63234;37.558;127.058;2023-08-20T07:27:43;100484.09;;;24.64;68.50
74716;BME280;63234;37.558;127.058;2023-08-20T07:30:10;100500.81;;;24.71;68.44
74716;BME280;63234;37.558;127.058;2023-08-20T07:33:11;100498.41;;;24.70;67.90
74716;BME280;63234;37.558;127.058;2023-08-20T07:35:36;100501.91;;;24.70;67.40
74716;BME280;63234;37.558;127.058;2023-08-20T07:38:02;100503.22;;;24.73;67.21
74716;BME280;63234;37.558;127.058;2023-08-20T07:40:28;100503.03;;;24.69;67.35
74716;BME280;63234;37.558;127.058;2023-08-20T07:42:54;100496.63;;;24.88;66.60
74716;BME280;63234;37.558;127.058;2023-08-20T07:45:28;100496.34;;;24.89;66.19
74716;BME280;63234;37.558;127.058;2023-08-20T07:47:54;100495.75;;;25.01;65.82
74716;BME280;63234;37.558;127.058;2023-08-20T07:50:19;100492.78;;;24.89;66.04
74716;BME280;63234;37.558;127.058;2023-08-20T07:52:45;100495.22;;;24.90;66.20
74716;BME280;63234;37.558;127.058;2023-08-20T07:55:11;100486.06;;;25.09;65.77
74716;BME280;63234;37.558;127.058;2023-08-20T07:57:36;100488.72;;;25.00;65.90
74716;BME280;63234;37.558;127.058;2023-08-20T08:00:03;100495.97;;;25.05;66.09
74716;BME280;63234;37.558;127.058;2023-08-20T08:02:30;100493.09;;;25.10;65.58
74716;BME280;63234;37.558;127.058;2023-08-20T08:04:55;100494.94;;;25.14;65.59
74716;BME280;63234;37.558;127.058;2023-08-20T08:07:21;100501.94;;;25.29;65.34
74716;BME280;63234;37.558;127.058;2023-08-20T08:09:46;100510.50;;;25.23;65.68
74716;BME280;63234;37.558;127.058;2023-08-20T08:12:12;100515.75;;;25.19;65.61
74716;BME280;63234;37.558;127.058;2023-08-20T08:14:38;100497.97;;;25.13;65.95
74716;BME280;63234;37.558;127.058;2023-08-20T08:17:03;100505.69;;;25.20;66.21
74716;BME280;63234;37.558;127.058;2023-08-20T08:19:30;100512.19;;;25.32;65.47
74716;BME280;63234;37.558;127.058;2023-08-20T08:21:56;100505.91;;;25.32;65.54
74716;BME280;63234;37.558;127.058;2023-08-20T08:24:21;100514.47;;;25.39;65.37
74716;BME280;63234;37.558;127.058;2023-08-20T08:26:47;100520.09;;;25.43;65.30
74716;BME280;63234;37.558;127.058;2023-08-20T08:29:13;100520.38;;;25.41;66.48
74716;BME280;63234;37.558;127.058;2023-08-20T08:31:38;100526.59;;;25.33;66.14
74716;BME280;63234;37.558;127.058;2023-08-20T08:34:04;100519.19;;;25.56;65.53
74716;BME280;63234;37.558;127.058;2023-08-20T08:36:40;100520.03;;;25.65;65.39
74716;BME280;63234;37.558;127.058;2023-08-20T08:39:10;100527.47;;;25.73;65.29
74716;BME280;63234;37.558;127.058;2023-08-20T08:41:38;100523.44;;;25.71;65.25
74716;BME280;63234;37.558;127.058;2023-08-20T08:44:07;100524.00;;;25.81;65.26
74716;BME280;63234;37.558;127.058;2023-08-20T08:46:35;100518.19;;;26.05;64.22
74716;BME280;63234;37.558;127.058;2023-08-20T08:49:02;100522.25;;;25.85;64.41
74716;BME280;63234;37.558;127.058;2023-08-20T08:51:30;100526.03;;;26.07;63.82
74716;BME280;63234;37.558;127.058;2023-08-20T08:53:56;100519.16;;;26.09;63.76
74716;BME280;63234;37.558;127.058;2023-08-20T08:56:28;100513.84;;;26.04;63.72
74716;BME280;63234;37.558;127.058;2023-08-20T08:58:54;100519.44;;;26.08;64.05
74716;BME280;63234;37.558;127.058;2023-08-20T09:01:20;100513.22;;;26.16;63.51
74716;BME280;63234;37.558;127.058;2023-08-20T09:03:47;100516.69;;;26.48;62.15
74716;BME280;63234;37.558;127.058;2023-08-20T09:06:13;100515.38;;;26.37;62.51
74716;BME280;63234;37.558;127.058;2023-08-20T09:08:38;100519.09;;;26.49;62.38
74716;BME280;63234;37.558;127.058;2023-08-20T09:11:05;100520.34;;;26.43;63.00
74716;BME280;63234;37.558;127.058;2023-08-20T09:13:42;100519.91;;;26.50;63.24
74716;BME280;63234;37.558;127.058;2023-08-20T09:16:12;100515.38;;;26.45;63.13
74716;BME280;63234;37.558;127.058;2023-08-20T09:18:44;100509.78;;;26.42;63.44
74716;BME280;63234;37.558;127.058;2023-08-20T09:21:11;100504.03;;;26.52;62.97
74716;BME280;63234;37.558;127.058;2023-08-20T09:23:38;100505.50;;;26.58;63.00
74716;BME280;63234;37.558;127.058;2023-08-20T09:26:09;100507.09;;;26.59;62.96
74716;BME280;63234;37.558;127.058;2023-08-20T09:28:46;100510.13;;;26.75;62.40
74716;BME280;63234;37.558;127.058;2023-08-20T09:31:13;100512.22;;;26.78;62.61
74716;BME280;63234;37.558;127.058;2023-08-20T09:33:52;100507.91;;;26.86;61.92
74716;BME280;63234;37.558;127.058;2023-08-20T09:36:18;100507.09;;;26.85;62.75
74716;BME280;63234;37.558;127.058;2023-08-20T09:38:45;100513.22;;;26.91;62.04
74716;BME280;63234;37.558;127.058;2023-08-20T09:41:12;100511.44;;;26.86;62.84
74716;BME280;63234;37.558;127.058;2023-08-20T09:43:38;100518.81;;;26.77;63.20
74716;BME280;63234;37.558;127.058;2023-08-20T09:46:10;100525.06;;;26.69;63.06
74716;BME280;63234;37.558;127.058;2023-08-20T09:48:38;100520.75;;;26.76;63.18
74716;BME280;63234;37.558;127.058;2023-08-20T09:51:10;100519.16;;;26.75;62.93
74716;BME280;63234;37.558;127.058;2023-08-20T09:53:42;100516.41;;;26.93;62.88
74716;BME280;63234;37.558;127.058;2023-08-20T09:56:41;100514.31;;;27.25;61.69
74716;BME280;63234;37.558;127.058;2023-08-20T09:59:07;100510.81;;;27.24;62.08
74716;BME280;63234;37.558;127.058;2023-08-20T10:01:35;100510.63;;;27.20;61.89
74716;BME280;63234;37.558;127.058;2023-08-20T10:04:03;100511.09;;;27.14;61.61
74716;BME280;63234;37.558;127.058;2023-08-20T10:06:30;100515.94;;;27.26;61.45
74716;BME280;63234;37.558;127.058;2023-08-20T10:08:59;100508.69;;;27.30;61.57
74716;BME280;63234;37.558;127.058;2023-08-20T10:11:24;100505.63;;;27.40;60.65
74716;BME280;63234;37.558;127.058;2023-08-20T10:13:50;100499.34;;;27.48;60.52
74716;BME280;63234;37.558;127.058;2023-08-20T10:16:19;100500.13;;;27.57;60.47
74716;BME280;63234;37.558;127.058;2023-08-20T10:18:47;100500.69;;;27.72;60.81
74716;BME280;63234;37.558;127.058;2023-08-20T10:21:13;100498.41;;;27.91;59.64
74716;BME280;63234;37.558;127.058;2023-08-20T10:23:42;100488.69;;;28.02;58.94
74716;BME280;63234;37.558;127.058;2023-08-20T10:26:10;100492.56;;;28.31;57.92
74716;BME280;63234;37.558;127.058;2023-08-20T10:28:36;100502.47;;;28.65;57.03
74716;BME280;63234;37.558;127.058;2023-08-20T10:31:06;100497.31;;;29.06;56.31
74716;BME280;63234;37.558;127.058;2023-08-20T10:33:58;100497.88;;;29.44;54.87
74716;BME280;63234;37.558;127.058;2023-08-20T10:36:24;100495.44;;;29.64;54.75
74716;BME280;63234;37.558;127.058;2023-08-20T10:38:56;100483.44;;;29.68;54.28
74716;BME280;63234;37.558;127.058;2023-08-20T10:41:29;100490.19;;;29.71;53.73
74716;BME280;63234;37.558;127.058;2023-08-20T10:43:59;100482.97;;;29.66;54.61
74716;BME280;63234;37.558;127.058;2023-08-20T10:46:27;100492.00;;;29.67;54.47
74716;BME280;63234;37.558;127.058;2023-08-20T10:49:02;100493.94;;;29.79;54.00
74716;BME280;63234;37.558;127.058;2023-08-20T10:51:38;100495.63;;;29.59;54.83
74716;BME280;63234;37.558;127.058;2023-08-20T10:54:08;100498.38;;;29.59;55.73
74716;BME280;63234;37.558;127.058;2023-08-20T10:56:42;100501.53;;;29.48;55.51
74716;BME280;63234;37.558;127.058;2023-08-20T10:59:21;100488.72;;;29.28;55.77
74716;BME280;63234;37.558;127.058;2023-08-20T11:01:49;100481.47;;;29.11;56.00
74716;BME280;63234;37.558;127.058;2023-08-20T11:04:16;100482.09;;;28.96;56.37
74716;BME280;63234;37.558;127.058;2023-08-20T11:06:43;100481.09;;;29.00;56.53
74716;BME280;63234;37.558;127.058;2023-08-20T11:09:09;100483.09;;;28.91;57.04
74716;BME280;63234;37.558;127.058;2023-08-20T11:11:39;100472.59;;;29.14;56.05
74716;BME280;63234;37.558;127.058;2023-08-20T11:14:12;100471.59;;;28.98;55.53
74716;BME280;63234;37.558;127.058;2023-08-20T11:16:40;100473.34;;;29.02;56.19
74716;BME280;63234;37.558;127.058;2023-08-20T11:19:06;100472.88;;;29.00;55.88
74716;BME280;63234;37.558;127.058;2023-08-20T11:21:43;100469.66;;;28.98;56.23
74716;BME280;63234;37.558;127.058;2023-08-20T11:24:10;100469.06;;;29.14;56.24
74716;BME280;63234;37.558;127.058;2023-08-20T11:26:39;100472.94;;;29.13;56.37
74716;BME280;63234;37.558;127.058;2023-08-20T11:29:08;100469.06;;;29.14;56.32
74716;BME280;63234;37.558;127.058;2023-08-20T11:31:37;100471.81;;;29.26;56.02
74716;BME280;63234;37.558;127.058;2023-08-20T11:34:04;100464.78;;;29.37;55.58
74716;BME280;63234;37.558;127.058;2023-08-20T11:36:29;100468.06;;;29.43;55.16
74716;BME280;63234;37.558;127.058;2023-08-20T11:38:55;100465.91;;;29.36;55.22
74716;BME280;63234;37.558;127.058;2023-08-20T11:41:22;100473.34;;;29.48;54.98
74716;BME280;63234;37.558;127.058;2023-08-20T11:43:48;100468.91;;;29.43;53.65
74716;BME280;63234;37.558;127.058;2023-08-20T11:46:17;100456.22;;;29.51;53.47
74716;BME280;63234;37.558;127.058;2023-08-20T11:49:08;100456.13;;;29.47;53.80
74716;BME280;63234;37.558;127.058;2023-08-20T11:51:40;100452.22;;;29.61;54.19
74716;BME280;63234;37.558;127.058;2023-08-20T11:54:17;100459.13;;;29.67;53.58
74716;BME280;63234;37.558;127.058;2023-08-20T11:56:48;100449.84;;;29.59;54.39
74716;BME280;63234;37.558;127.058;2023-08-20T11:59:15;100460.28;;;29.66;55.04
74716;BME280;63234;37.558;127.058;2023-08-20T12:01:41;100454.31;;;29.76;53.88
74716;BME280;63234;37.558;127.058;2023-08-20T12:04:07;100458.44;;;29.70;54.02
74716;BME280;63234;37.558;127.058;2023-08-20T12:06:35;100451.72;;;29.67;53.99
74716;BME280;63234;37.558;127.058;2023-08-20T12:09:02;100449.19;;;29.87;53.76
74716;BME280;63234;37.558;127.058;2023-08-20T12:11:31;100452.03;;;29.90;53.47
74716;BME280;63234;37.558;127.058;2023-08-20T12:13:58;100440.50;;;29.97;53.62
74716;BME280;63234;37.558;127.058;2023-08-20T12:16:24;100450.34;;;29.86;54.12
74716;BME280;63234;37.558;127.058;2023-08-20T12:18:51;100442.31;;;30.05;53.14
74716;BME280;63234;37.558;127.058;2023-08-20T12:21:18;100444.03;;;29.98;52.90
74716;BME280;63234;37.558;127.058;2023-08-20T12:23:44;100436.06;;;29.92;52.71
74716;BME280;63234;37.558;127.058;2023-08-20T12:26:10;100432.81;;;30.15;51.41
74716;BME280;63234;37.558;127.058;2023-08-20T12:28:35;100428.25;;;30.07;51.78
74716;BME280;63234;37.558;127.058;2023-08-20T12:31:01;100428.03;;;30.52;49.86
74716;BME280;63234;37.558;127.058;2023-08-20T12:33:28;100436.72;;;30.26;49.85